KNDZ

Whiting Field NAS South Airport

Milton, Florida, USA
METAR KNDZ 181256Z 00000KT 7SM MIFG SCT250 02/02 A3016 RMK AO2 SLP202 T00220022 $
Observed Flight Rules
Dec-18 @ 12:56 UTC (an hour ago) Visual Flight Rules
Visibility Clouds Conditions
7 miles
  • Scattered at 25,000' AGL
  • Shallow
  • Fog
Temperatures Readings
Current 2°C / 36°F
Dewpoint 2°C / 36°F
Humidity 100%
Altimeter 30.16" Hg
Pressure 1020.2 hPa
Elevation 54
METAR KNDZ 181256Z 00000KT 7SM MIFG SCT250 02/02 A3016 RMK AO2 SLP202 T00220022 $
Observed Flight Rules
Dec-18 @ 12:56 UTC
(an hour ago)
VFR
Clouds
  • Scattered at 25,000' AGL
Conditions
  • Shallow
  • Fog
Temperature Dewpoint
2°C / 36°F 2°C / 36°F
Humidity Altimeter Pressure
100% 30.16" Hg 1020.2 hPa